Time;durP1;ratioP1;P1;durP2;ratioP2;P2;SDS_P1;SDS_P2;PMS_P1;PMS_P2;Temp;Humidity;BMP_temperature;BMP_pressure;BME280_temperature;BME280_humidity;BME280_pressure;Samples;Min_cycle;Max_cycle;Signal;HPM_P1;HPM_P2
2024/02/10 00:01:27;;;;;;;;;22.50;21.00;;;;;12.21;51.66;100572.81;146635;567;46010;-69
2024/02/10 00:04:25;;;;;;;;;21.25;17.50;;;;;12.11;51.80;100572.34;146633;594;45016;-69
2024/02/10 00:07:32;;;;;;;;;42.25;33.00;;;;;11.96;52.38;100570.88;146635;593;45010;-69
2024/02/10 00:10:33;;;;;;;;;28.25;26.75;;;;;11.78;53.02;100570.94;146635;717;46012;-68
2024/02/10 00:13:34;;;;;;;;;37.50;30.75;;;;;11.61;53.67;100566.69;146633;718;46010;-68
2024/02/10 00:16:33;;;;;;;;;37.50;30.50;;;;;11.52;53.92;100574.06;146631;595;46012;-69
2024/02/10 00:19:38;;;;;;;;;39.25;30.75;;;;;11.51;53.09;100570.56;146634;626;46010;-68
2024/02/10 00:22:36;;;;;;;;;15.25;13.75;;;;;11.58;53.29;100569.16;146633;584;45034;-67
2024/02/10 00:25:43;;;;;;;;;15.75;14.00;;;;;11.60;52.75;100575.31;146630;602;46010;-67
2024/02/10 00:28:38;;;;;;;;;9.00;8.50;;;;;11.58;52.08;100576.94;146630;572;45913;-66
2024/02/10 00:31:44;;;;;;;;;24.50;20.25;;;;;11.56;51.73;100574.28;146633;615;46020;-66
2024/02/10 00:34:48;;;;;;;;;17.00;15.25;;;;;11.55;51.97;100571.59;146631;619;46013;-69
2024/02/10 00:37:44;;;;;;;;;8.50;5.75;;;;;11.49;51.49;100567.00;146632;616;46020;-67
2024/02/10 00:40:53;;;;;;;;;6.25;5.00;;;;;11.46;50.98;100569.47;146632;590;45026;-68
2024/02/10 00:43:49;;;;;;;;;8.75;6.75;;;;;11.46;51.04;100581.56;146630;636;45021;-67
2024/02/10 00:46:44;;;;;;;;;6.50;6.00;;;;;11.43;51.07;100582.34;146621;565;45022;-67
2024/02/10 00:49:36;;;;;;;;;8.25;6.25;;;;;11.47;51.81;100586.84;146617;595;47010;-68
2024/02/10 00:52:34;;;;;;;;;30.75;28.25;;;;;11.41;51.48;100573.59;146617;639;46016;-68
2024/02/10 00:55:30;;;;;;;;;10.00;10.00;;;;;11.25;52.00;100564.22;146614;575;47010;-68
2024/02/10 00:58:24;;;;;;;;;5.00;4.50;;;;;11.14;52.04;100569.72;146617;575;46012;-68
2024/02/10 01:01:22;;;;;;;;;6.50;4.75;;;;;11.05;53.60;100568.47;146621;602;46020;-67
2024/02/10 01:04:15;;;;;;;;;12.00;10.00;;;;;11.08;53.70;100589.37;146618;579;46033;-68
2024/02/10 01:07:10;;;;;;;;;9.00;8.50;;;;;11.13;53.30;100584.41;146618;595;46020;-69
2024/02/10 01:10:22;;;;;;;;;13.75;11.25;;;;;11.25;52.00;100597.97;146613;644;47012;-67
2024/02/10 01:13:27;;;;;;;;;13.00;11.25;;;;;11.39;52.52;100596.00;146614;601;47021;-68
2024/02/10 01:16:27;;;;;;;;;12.00;12.00;;;;;11.40;53.54;100595.19;146614;570;46016;-69
2024/02/10 01:19:23;;;;;;;;;14.25;11.75;;;;;11.34;53.74;100607.88;146619;587;47025;-68
2024/02/10 01:22:21;;;;;;;;;12.75;12.25;;;;;11.27;53.81;100606.69;146614;606;46913;-68
2024/02/10 01:25:20;;;;;;;;;11.75;11.00;;;;;11.23;55.17;100601.31;146614;599;47020;-69
2024/02/10 01:28:16;;;;;;;;;11.00;9.50;;;;;11.15;54.78;100597.44;146614;641;47013;-69
2024/02/10 01:31:11;;;;;;;;;11.50;10.00;;;;;11.04;55.26;100587.47;146620;701;46012;-66
2024/02/10 01:34:04;;;;;;;;;12.00;9.50;;;;;11.00;55.42;100588.16;146619;620;46015;-68
2024/02/10 01:37:00;;;;;;;;;11.50;9.25;;;;;10.92;55.02;100581.69;146623;589;46020;-69
2024/02/10 01:40:04;;;;;;;;;10.25;9.25;;;;;10.83;54.94;100576.06;146616;577;47014;-68
2024/02/10 01:42:58;;;;;;;;;9.75;8.75;;;;;10.77;55.54;100576.66;146622;606;46010;-69
2024/02/10 01:45:52;;;;;;;;;8.00;6.25;;;;;10.68;55.22;100577.91;146632;566;46016;-68
2024/02/10 01:48:59;;;;;;;;;9.75;7.75;;;;;10.59;55.04;100579.28;146637;597;45021;-69
2024/02/10 01:51:51;;;;;;;;;7.75;6.50;;;;;10.48;56.06;100576.97;146630;603;46012;-69
2024/02/10 01:54:49;;;;;;;;;6.75;6.25;;;;;10.38;55.77;100575.63;146634;565;46010;-68
2024/02/10 01:57:45;;;;;;;;;3.50;3.50;;;;;10.33;55.80;100577.09;146634;651;45016;-67
2024/02/10 02:00:59;;;;;;;;;6.50;4.50;;;;;10.33;55.41;100582.28;146635;598;45020;-68
2024/02/10 02:03:57;;;;;;;;;7.00;5.25;;;;;10.39;55.01;100591.22;146631;594;45913;-68
2024/02/10 02:06:52;;;;;;;;;7.50;6.25;;;;;10.45;55.16;100582.87;146634;584;45020;-66
2024/02/10 02:09:45;;;;;;;;;10.00;9.50;;;;;10.54;55.08;100585.03;146630;577;46012;-66
2024/02/10 02:12:49;;;;;;;;;5.00;5.00;;;;;10.52;54.95;100584.94;146634;579;45011;-66
2024/02/10 02:15:48;;;;;;;;;8.75;8.50;;;;;10.47;54.83;100586.44;146631;571;46014;-68
2024/02/10 02:18:43;;;;;;;;;8.25;7.75;;;;;10.38;55.15;100580.81;146635;601;46010;-67
2024/02/10 02:21:39;;;;;;;;;5.75;5.00;;;;;10.23;55.67;100593.84;146636;701;45012;-67
2024/02/10 02:24:43;;;;;;;;;7.75;7.25;;;;;10.14;55.66;100596.84;146636;609;45020;-67
2024/02/10 02:27:45;;;;;;;;;6.25;4.00;;;;;10.11;55.80;100591.53;146632;599;46026;-67
2024/02/10 02:31:03;;;;;;;;;7.75;6.75;;;;;10.10;54.82;100594.94;146631;599;47012;-67
2024/02/10 02:34:05;;;;;;;;;6.75;5.25;;;;;10.03;55.81;100597.13;146631;609;46010;-68
2024/02/10 02:37:02;;;;;;;;;8.75;8.75;;;;;9.98;56.13;100609.84;146634;645;46010;-68
2024/02/10 02:39:59;;;;;;;;;7.00;7.00;;;;;9.97;56.26;100607.16;146634;651;46012;-68
2024/02/10 02:42:57;;;;;;;;;5.00;5.00;;;;;9.91;56.86;100608.62;146634;571;46021;-68
2024/02/10 02:45:49;;;;;;;;;10.25;9.50;;;;;9.83;57.46;100620.28;146635;587;46012;-67
2024/02/10 02:48:44;;;;;;;;;8.50;7.50;;;;;9.80;57.32;100622.72;146634;575;46021;-67
2024/02/10 02:51:48;;;;;;;;;10.00;8.25;;;;;9.80;57.93;100622.72;146630;631;45012;-67
2024/02/10 02:54:42;;;;;;;;;7.00;6.50;;;;;9.79;58.02;100617.47;146630;564;46010;-69
2024/02/10 02:57:44;;;;;;;;;5.00;5.00;;;;;9.71;58.24;100607.59;146633;612;45014;-69
2024/02/10 03:00:59;;;;;;;;;7.75;5.25;;;;;9.59;57.86;100606.94;146633;570;46020;-69
2024/02/10 03:03:58;;;;;;;;;4.50;4.50;;;;;9.57;57.59;100598.22;146635;592;45017;-68
2024/02/10 03:06:54;;;;;;;;;7.00;5.75;;;;;9.55;58.33;100605.00;146636;569;46010;-70
2024/02/10 03:09:48;;;;;;;;;6.75;6.00;;;;;9.57;57.92;100595.63;146635;575;45012;-68
2024/02/10 03:12:48;;;;;;;;;5.50;5.50;;;;;9.64;57.62;100604.59;146637;572;45010;-67
2024/02/10 03:15:53;;;;;;;;;5.25;5.25;;;;;9.69;57.75;100605.75;146633;588;45915;-70
2024/02/10 03:19:01;;;;;;;;;6.25;6.25;;;;;9.70;56.97;100598.03;146634;582;46010;-70
2024/02/10 03:22:10;;;;;;;;;;;;;;;;;;;;;
2024/02/10 03:25:04;;;;;;;;;7.50;7.25;;;;;9.64;57.21;100591.66;146633;564;46020;-69
2024/02/10 03:28:03;;;;;;;;;7.25;6.75;;;;;9.61;57.32;100597.56;146634;597;45017;-69
2024/02/10 03:30:58;;;;;;;;;6.50;5.00;;;;;9.62;57.40;100585.50;146636;611;45034;-72
2024/02/10 03:33:50;;;;;;;;;19.75;17.75;;;;;9.62;57.76;100586.37;146635;739;45016;-71
2024/02/10 03:36:48;;;;;;;;;7.75;7.00;;;;;9.57;58.21;100581.81;146630;603;46020;-72
2024/02/10 03:39:47;;;;;;;;;4.75;4.00;;;;;9.53;58.14;100585.00;146632;608;45913;-70
2024/02/10 03:42:47;;;;;;;;;6.50;6.00;;;;;9.49;57.33;100590.03;146633;620;46020;-70
2024/02/10 03:45:42;;;;;;;;;33.25;28.50;;;;;9.52;57.94;100578.94;146633;581;46014;-68
2024/02/10 03:48:49;;;;;;;;;6.25;5.00;;;;;9.59;57.74;100580.16;146632;581;46010;-70
2024/02/10 03:51:51;;;;;;;;;9.00;8.00;;;;;9.64;58.12;100592.53;146635;585;45016;-68
2024/02/10 03:54:52;;;;;;;;;8.00;8.00;;;;;9.71;58.73;100602.41;146632;672;46010;-69
2024/02/10 03:57:49;;;;;;;;;6.00;5.50;;;;;9.83;58.55;100616.81;146634;604;46012;-69
2024/02/10 04:00:48;;;;;;;;;8.50;6.50;;;;;9.93;58.11;100621.66;146631;614;46020;-69
2024/02/10 04:03:44;;;;;;;;;10.25;8.75;;;;;10.06;57.94;100624.09;146635;643;45012;-69
2024/02/10 04:06:43;;;;;;;;;11.00;10.25;;;;;10.15;58.04;100626.25;146635;595;45020;-68
2024/02/10 04:09:38;;;;;;;;;10.75;9.25;;;;;10.21;58.23;100625.66;146630;578;46012;-68
2024/02/10 04:12:30;;;;;;;;;14.75;9.50;;;;;10.21;59.76;100618.78;146631;625;46010;-67
2024/02/10 04:15:26;;;;;;;;;12.25;9.75;;;;;10.12;60.20;100615.72;146631;592;45913;-67
2024/02/10 04:18:25;;;;;;;;;13.75;11.00;;;;;10.07;59.45;100615.50;146636;576;45020;-68
2024/02/10 04:21:22;;;;;;;;;11.00;10.25;;;;;10.08;59.94;100618.97;146626;642;46016;-69
2024/02/10 04:24:17;;;;;;;;;9.25;7.25;;;;;10.10;60.09;100614.78;146632;591;46021;-66
2024/02/10 04:27:10;;;;;;;;;7.00;6.50;;;;;10.12;60.34;100614.03;146633;603;45012;-69
2024/02/10 04:30:07;;;;;;;;;7.00;7.00;;;;;10.10;59.77;100617.38;146635;581;45020;-69
2024/02/10 04:33:04;;;;;;;;;7.25;7.25;;;;;10.10;59.84;100620.84;146632;624;46012;-68
2024/02/10 04:36:00;;;;;;;;;13.00;9.50;;;;;10.07;60.58;100619.78;146633;629;46010;-66
2024/02/10 04:38:57;;;;;;;;;10.75;10.75;;;;;10.09;59.73;100608.72;146635;594;45915;-68
2024/02/10 04:41:49;;;;;;;;;11.00;9.00;;;;;10.13;58.92;100614.94;146637;620;45020;-67
2024/02/10 04:44:58;;;;;;;;;11.25;8.25;;;;;10.20;58.33;100618.72;146625;595;45016;-66
2024/02/10 04:47:51;;;;;;;;;7.00;7.00;;;;;10.26;58.77;100627.72;146623;597;46010;-65
2024/02/10 04:50:59;;;;;;;;;10.25;10.25;;;;;10.29;58.03;100632.19;146616;614;46014;-66
2024/02/10 04:54:13;;;;;;;;;11.50;7.25;;;;;10.29;57.86;100614.03;146621;581;46012;-66
2024/02/10 04:57:28;;;;;;;;;7.75;6.75;;;;;10.19;58.97;100628.19;146616;646;47016;-69
2024/02/10 05:00:27;;;;;;;;;9.75;8.25;;;;;9.95;58.65;100623.53;146618;643;47020;-69
2024/02/10 05:03:20;;;;;;;;;9.50;6.50;;;;;9.81;59.82;100621.94;146615;636;47012;-68
2024/02/10 05:06:27;;;;;;;;;9.00;8.00;;;;;9.71;60.88;100617.94;146621;647;47010;-68
2024/02/10 05:09:21;;;;;;;;;9.50;9.00;;;;;9.66;60.97;100623.72;146615;602;46016;-69
2024/02/10 05:12:15;;;;;;;;;10.00;8.00;;;;;9.64;60.38;100627.91;146619;592;46020;-69
2024/02/10 05:15:14;;;;;;;;;13.50;10.00;;;;;9.64;60.75;100623.59;146619;621;45017;-68
2024/02/10 05:18:23;;;;;;;;;11.75;9.25;;;;;9.65;60.99;100625.38;146616;581;46012;-69
2024/02/10 05:21:25;;;;;;;;;8.00;8.00;;;;;9.62;60.06;100640.75;146613;595;47016;-69
2024/02/10 05:24:28;;;;;;;;;11.00;7.50;;;;;9.56;61.82;100639.53;146620;593;46020;-70
2024/02/10 05:27:26;;;;;;;;;12.00;8.00;;;;;9.44;60.75;100640.66;146617;649;46016;-69
2024/02/10 05:30:25;;;;;;;;;9.75;7.00;;;;;9.46;61.37;100654.56;146622;612;46010;-70
2024/02/10 05:33:18;;;;;;;;;8.75;7.50;;;;;9.46;61.13;100657.16;146617;595;46016;-68
2024/02/10 05:36:15;;;;;;;;;3.75;2.75;;;;;9.51;60.47;100654.84;146620;604;46020;-66
2024/02/10 05:39:30;;;;;;;;;8.75;7.50;;;;;9.59;59.86;100670.75;146620;572;46012;-65
2024/02/10 05:42:28;;;;;;;;;12.50;9.50;;;;;9.65;59.59;100663.31;146621;569;46010;-64
2024/02/10 05:45:23;;;;;;;;;10.50;10.50;;;;;9.71;59.54;100663.66;146617;575;46017;-65
2024/02/10 05:48:31;;;;;;;;;13.00;11.25;;;;;9.73;61.34;100674.13;146616;633;46020;-66
2024/02/10 05:51:28;;;;;;;;;16.25;10.50;;;;;9.70;60.96;100657.59;146614;613;46016;-66
2024/02/10 05:54:29;;;;;;;;;12.00;10.00;;;;;9.69;61.89;100660.13;146611;617;47020;-66
2024/02/10 05:57:25;;;;;;;;;9.00;8.25;;;;;9.64;61.95;100662.44;146614;599;46016;-68
2024/02/10 06:00:22;;;;;;;;;12.25;9.75;;;;;9.66;61.68;100667.72;146620;604;46020;-72
2024/02/10 06:03:26;;;;;;;;;10.50;10.00;;;;;9.76;62.11;100685.53;146614;634;46915;-71
2024/02/10 06:06:22;;;;;;;;;13.50;10.00;;;;;9.91;62.08;100695.81;146616;585;46011;-70
2024/02/10 06:09:23;;;;;;;;;15.00;15.00;;;;;10.07;60.93;100690.63;146611;591;46016;-68
2024/02/10 06:12:18;;;;;;;;;19.25;17.50;;;;;10.26;61.33;100696.78;146615;644;46020;-71
2024/02/10 06:15:19;;;;;;;;;19.00;15.75;;;;;10.51;60.61;100707.63;146612;565;46017;-71
2024/02/10 06:18:27;;;;;;;;;142.50;124.75;;;;;10.71;59.56;100697.34;146621;611;46020;-70
2024/02/10 06:21:23;;;;;;;;;25.25;24.50;;;;;10.81;58.62;100702.19;146613;581;47012;-71
2024/02/10 06:24:19;;;;;;;;;13.25;13.00;;;;;10.84;58.20;100686.78;146614;565;46010;-72
2024/02/10 06:27:34;;;;;;;;;9.25;9.25;;;;;11.10;57.23;100682.88;146613;602;46018;-74
2024/02/10 06:30:57;;;;;;;;;8.75;7.50;;;;;11.92;58.46;100682.38;146621;577;46010;-71
2024/02/10 06:33:58;;;;;;;;;8.75;7.50;;;;;13.10;56.76;100692.62;146607;577;48915;-69
2024/02/10 06:36:54;;;;;;;;;7.50;7.50;;;;;14.47;54.13;100696.97;146621;697;47010;-67
2024/02/10 06:39:47;;;;;;;;;19.75;18.75;;;;;15.72;47.74;100701.06;146614;632;46016;-67
2024/02/10 06:42:42;;;;;;;;;35.00;29.00;;;;;16.54;46.18;100695.56;146617;628;46020;-67
2024/02/10 06:45:46;;;;;;;;;36.00;29.00;;;;;17.00;44.49;100702.00;146611;609;46012;-66
2024/02/10 06:48:49;;;;;;;;;44.50;36.50;;;;;17.28;43.56;100700.03;146616;575;46012;-66
2024/02/10 06:51:49;;;;;;;;;46.75;35.25;;;;;17.48;41.99;100703.16;146611;612;46034;-67
2024/02/10 06:54:52;;;;;;;;;41.50;32.00;;;;;17.29;44.04;100715.81;146605;569;46020;-68
2024/02/10 06:57:52;;;;;;;;;47.50;35.50;;;;;17.26;44.94;100720.12;146613;679;46016;-68
2024/02/10 07:00:48;;;;;;;;;39.25;33.00;;;;;17.33;43.42;100714.16;146621;613;46010;-67
2024/02/10 07:03:52;;;;;;;;;43.75;34.25;;;;;17.23;44.38;100727.91;146609;602;46012;-68
2024/02/10 07:06:57;;;;;;;;;37.75;32.25;;;;;17.12;45.17;100729.34;146614;645;46010;-68
2024/02/10 07:09:49;;;;;;;;;42.25;32.00;;;;;17.03;45.35;100733.50;146612;589;46016;-68
2024/02/10 07:12:49;;;;;;;;;40.00;32.50;;;;;16.99;43.84;100736.03;146612;671;47020;-68
2024/02/10 07:15:42;;;;;;;;;35.25;29.25;;;;;16.83;44.95;100740.88;146610;643;46012;-67
2024/02/10 07:18:38;;;;;;;;;45.00;35.00;;;;;16.71;44.93;100731.78;146616;581;46020;-70
2024/02/10 07:21:33;;;;;;;;;42.50;34.00;;;;;16.61;44.93;100735.87;146608;591;46914;-69
2024/02/10 07:24:31;;;;;;;;;42.75;34.50;;;;;16.58;45.75;100728.84;146613;630;46029;-71
2024/02/10 07:27:26;;;;;;;;;41.50;35.00;;;;;16.53;46.04;100734.78;146609;685;46913;-70
2024/02/10 07:30:23;;;;;;;;;46.75;38.50;;;;;16.39;46.30;100732.69;146613;796;47020;-68
2024/02/10 07:33:17;;;;;;;;;42.75;36.00;;;;;16.31;46.51;100718.47;146613;649;46012;-69
2024/02/10 07:36:18;;;;;;;;;36.00;32.25;;;;;16.35;47.67;100720.38;146612;681;47020;-69
2024/02/10 07:39:14;;;;;;;;;38.25;32.25;;;;;16.54;47.69;100729.59;146611;581;46913;-70
2024/02/10 07:42:15;;;;;;;;;28.00;24.25;;;;;16.65;46.89;100735.13;146617;569;46010;-69
2024/02/10 07:45:15;;;;;;;;;28.50;24.00;;;;;16.74;47.08;100726.62;146607;640;47012;-66
2024/02/10 07:48:11;;;;;;;;;21.50;19.50;;;;;16.89;46.59;100711.34;146618;652;46010;-67
2024/02/10 07:51:04;;;;;;;;;45.25;36.00;;;;;17.04;45.45;100714.34;146613;578;47012;-66
2024/02/10 07:54:02;;;;;;;;;44.75;35.50;;;;;17.13;45.45;100726.75;146610;563;46012;-66
2024/02/10 07:57:03;;;;;;;;;32.75;30.00;;;;;17.22;45.69;100736.59;146610;641;47012;-66
2024/02/10 08:00:04;;;;;;;;;29.50;27.75;;;;;17.27;46.41;100728.00;146618;584;47010;-65
2024/02/10 08:03:11;;;;;;;;;32.00;29.00;;;;;17.42;45.44;100719.63;146615;588;47012;-65
2024/02/10 08:06:10;;;;;;;;;31.75;28.75;;;;;17.53;46.75;100733.84;146617;638;47010;-67
2024/02/10 08:09:14;;;;;;;;;33.00;27.00;;;;;17.69;46.88;100736.81;146614;655;46016;-66
2024/02/10 08:12:20;;;;;;;;;26.75;26.75;;;;;17.81;46.44;100731.00;146618;625;46010;-66
2024/02/10 08:15:22;;;;;;;;;27.75;24.50;;;;;17.94;46.19;100749.69;146608;582;46012;-66
2024/02/10 08:18:18;;;;;;;;;30.00;26.75;;;;;18.00;46.36;100755.03;146618;599;46012;-65
2024/02/10 08:21:11;;;;;;;;;28.00;24.50;;;;;18.03;45.49;100750.69;146614;603;46012;-66
2024/02/10 08:24:11;;;;;;;;;20.25;18.50;;;;;18.02;44.11;100754.19;146613;624;46010;-67
2024/02/10 08:27:04;;;;;;;;;23.75;23.25;;;;;17.95;44.40;100755.81;146610;615;46016;-67
2024/02/10 08:30:28;;;;;;;;;30.50;26.50;;;;;17.90;45.14;100757.44;146617;592;46020;-65
2024/02/10 08:33:33;;;;;;;;;30.75;25.75;;;;;17.95;45.98;100759.31;146610;617;46012;-65
2024/02/10 08:36:38;;;;;;;;;21.50;21.00;;;;;18.03;45.27;100750.69;146614;564;46021;-65
2024/02/10 08:39:39;;;;;;;;;21.50;21.00;;;;;18.02;45.95;100744.56;146611;659;46016;-66
2024/02/10 08:42:35;;;;;;;;;39.00;31.00;;;;;18.05;46.43;100749.00;146616;586;46021;-65
2024/02/10 08:45:28;;;;;;;;;29.00;24.00;;;;;18.16;45.48;100752.72;146611;579;47012;-65
2024/02/10 08:48:22;;;;;;;;;22.25;21.75;;;;;18.31;44.79;100754.78;146613;657;47010;-66
2024/02/10 08:51:15;;;;;;;;;27.00;19.25;;;;;18.42;43.30;100751.53;146613;577;46016;-67
2024/02/10 08:54:12;;;;;;;;;24.75;24.25;;;;;18.51;43.18;100745.56;146617;607;46029;-66
2024/02/10 08:57:09;;;;;;;;;14.25;12.50;;;;;18.67;43.35;100746.75;146609;623;47032;-66
2024/02/10 09:00:04;;;;;;;;;17.50;15.50;;;;;18.84;43.16;100739.19;146615;565;46020;-66
2024/02/10 09:02:59;;;;;;;;;14.25;12.00;;;;;19.03;43.78;100738.66;146606;576;48012;-68
2024/02/10 09:05:51;;;;;;;;;13.00;13.00;;;;;19.15;42.86;100741.47;146616;650;46020;-66
2024/02/10 09:08:43;;;;;;;;;23.25;22.00;;;;;19.19;44.22;100746.78;146614;643;46016;-66
2024/02/10 09:11:41;;;;;;;;;17.75;15.25;;;;;19.18;42.52;100740.66;146612;569;47011;-67
2024/02/10 09:14:34;;;;;;;;;16.00;15.75;;;;;19.18;43.07;100742.41;146611;672;46016;-67
2024/02/10 09:17:29;;;;;;;;;11.75;11.00;;;;;19.24;42.18;100734.63;146612;572;47020;-67
2024/02/10 09:20:44;;;;;;;;;18.00;16.25;;;;;19.33;42.73;100735.66;146610;581;46016;-69
2024/02/10 09:23:36;;;;;;;;;23.50;20.50;;;;;19.45;42.55;100728.81;146611;577;47010;-68
2024/02/10 09:26:34;;;;;;;;;19.50;17.25;;;;;19.55;41.27;100720.19;146611;570;47022;-68
2024/02/10 09:29:30;;;;;;;;;23.00;21.00;;;;;19.64;40.03;100715.09;146616;622;48020;-68
2024/02/10 09:32:24;;;;;;;;;21.00;19.75;;;;;19.74;41.85;100724.87;146615;606;46016;-68
2024/02/10 09:35:23;;;;;;;;;26.00;23.50;;;;;19.86;46.23;100718.91;146616;600;46011;-67
2024/02/10 09:38:14;;;;;;;;;31.00;26.50;;;;;19.91;44.82;100705.84;146611;588;46917;-68
2024/02/10 09:41:07;;;;;;;;;33.25;28.00;;;;;20.02;43.18;100723.50;146617;621;47030;-68
2024/02/10 09:44:03;;;;;;;;;33.00;28.50;;;;;20.07;44.77;100728.84;146610;563;47021;-69
2024/02/10 09:47:00;;;;;;;;;24.00;21.00;;;;;20.01;44.34;100727.00;146617;585;46010;-70
2024/02/10 09:50:02;;;;;;;;;23.50;21.25;;;;;19.84;46.11;100716.28;146612;651;46017;-68
2024/02/10 09:52:55;;;;;;;;;24.75;22.75;;;;;19.75;47.55;100717.88;146617;634;46029;-67
2024/02/10 09:55:52;;;;;;;;;31.75;28.50;;;;;19.71;47.61;100722.22;146612;576;46016;-69
2024/02/10 09:58:53;;;;;;;;;35.75;30.00;;;;;19.68;47.61;100716.91;146613;697;47010;-69
2024/02/10 10:01:49;;;;;;;;;26.75;23.75;;;;;19.69;44.31;100723.97;146612;758;46016;-69
2024/02/10 10:04:42;;;;;;;;;24.50;23.75;;;;;19.68;46.20;100726.53;146612;600;48011;-68
2024/02/10 10:07:37;;;;;;;;;18.00;16.00;;;;;19.68;46.75;100721.28;146607;603;47012;-67
2024/02/10 10:10:33;;;;;;;;;17.50;17.00;;;;;19.67;46.42;100719.53;146617;696;46019;-69
2024/02/10 10:13:36;;;;;;;;;20.50;19.25;;;;;19.66;45.70;100709.84;146613;581;47012;-70
2024/02/10 10:16:32;;;;;;;;;21.25;16.50;;;;;19.54;44.41;100705.28;146617;601;46020;-68
2024/02/10 10:19:47;;;;;;;;;18.00;15.25;;;;;19.47;45.93;100711.31;146614;568;46013;-67
2024/02/10 10:23:18;;;;;;;;;13.00;12.50;;;;;17.73;44.95;100395.16;146618;563;46012;-66
2024/02/10 10:26:21;;;;;;;;;28.25;23.25;;;;;19.72;47.01;100705.59;146614;626;46017;-68
2024/02/10 10:29:23;;;;;;;;;25.25;22.75;;;;;19.95;46.79;100708.50;146616;596;46051;-67
2024/02/10 10:32:23;;;;;;;;;30.00;23.50;;;;;20.12;46.93;100708.69;146611;603;46017;-68
2024/02/10 10:35:39;;;;;;;;;28.00;24.75;;;;;20.25;45.55;100705.37;146616;724;46010;-68
2024/02/10 10:38:51;;;;;;;;;18.50;18.25;;;;;20.28;46.20;100709.78;146610;692;46913;-68
2024/02/10 10:42:21;;;;;;;;;;;;;;;;;;;;;
2024/02/10 10:45:55;;;;;;;;;26.75;23.25;;;;;19.94;45.43;100696.22;146611;579;46016;-68
2024/02/10 10:49:01;;;;;;;;;14.50;12.50;;;;;19.84;45.00;100702.22;146617;681;46021;-67
2024/02/10 10:52:35;;;;;;;;;15.50;13.00;;;;;18.69;45.84;100506.91;146610;576;46016;-68
2024/02/10 10:56:14;;;;;;;;;14.00;13.00;;;;;20.00;41.43;100680.50;146611;592;47021;-67
2024/02/10 10:59:23;;;;;;;;;15.50;14.25;;;;;20.25;45.26;100681.66;146612;571;46016;-68
2024/02/10 11:02:34;;;;;;;;;15.50;13.00;;;;;20.45;42.88;100686.25;146612;602;46020;-69
2024/02/10 11:05:54;;;;;;;;;;;;;;;;;;;;;
2024/02/10 11:08:58;;;;;;;;;15.50;12.75;;;;;20.52;41.24;100678.47;146617;617;47020;-68
2024/02/10 11:11:59;;;;;;;;;14.25;12.75;;;;;20.57;42.18;100670.63;146612;613;46017;-68
2024/02/10 11:15:05;;;;;;;;;7.25;7.25;;;;;20.68;38.75;100658.41;146614;644;46020;-68
2024/02/10 11:18:05;;;;;;;;;11.25;10.00;;;;;20.74;41.21;100655.81;146616;663;46017;-65
2024/02/10 11:21:39;;;;;;;;;11.25;10.50;;;;;20.58;42.03;100653.94;146618;569;46020;-67
2024/02/10 11:24:43;;;;;;;;;11.75;10.50;;;;;20.31;41.51;100646.59;146606;566;46013;-67
2024/02/10 11:28:10;;;;;;;;;12.25;11.25;;;;;20.19;40.31;100639.47;146615;573;46020;-67
2024/02/10 11:31:20;;;;;;;;;11.75;10.50;;;;;20.07;41.79;100650.75;146611;610;46032;-68
2024/02/10 11:34:47;;;;;;;;;9.00;6.00;;;;;18.53;42.78;100389.37;146615;575;46020;-68
2024/02/10 11:38:12;;;;;;;;;8.75;8.00;;;;;20.00;39.06;100642.75;146618;702;46016;-68
2024/02/10 11:41:23;;;;;;;;;6.00;6.00;;;;;20.00;38.52;100641.03;146617;581;47012;-68
2024/02/10 11:44:29;;;;;;;;;15.00;13.00;;;;;19.99;40.56;100633.09;146615;615;46016;-68
2024/02/10 11:47:30;;;;;;;;;17.00;14.75;;;;;19.95;39.73;100628.69;146606;612;47020;-68
2024/02/10 11:50:26;;;;;;;;;23.25;18.75;;;;;19.92;40.08;100620.75;146616;693;46012;-70
2024/02/10 11:53:58;;;;;;;;;17.00;16.00;;;;;18.08;42.47;100322.28;146610;593;46020;-68
2024/02/10 11:57:39;;;;;;;;;;;;;;;;;;;;;
2024/02/10 12:00:46;;;;;;;;;21.50;18.00;;;;;19.69;41.89;100616.09;146616;568;47010;-69
2024/02/10 12:03:55;;;;;;;;;25.50;22.00;;;;;19.65;42.61;100619.53;146612;621;46016;-68
2024/02/10 12:06:58;;;;;;;;;12.75;12.00;;;;;19.54;42.44;100622.00;146614;574;46020;-67
2024/02/10 12:09:56;;;;;;;;;14.25;12.75;;;;;19.32;42.88;100623.47;146615;593;46012;-68
2024/02/10 12:13:00;;;;;;;;;13.50;12.50;;;;;19.10;43.88;100619.66;146616;618;47010;-68
2024/02/10 12:15:52;;;;;;;;;16.25;14.75;;;;;18.96;44.76;100620.28;146613;585;46913;-67
2024/02/10 12:19:06;;;;;;;;;17.25;15.25;;;;;18.84;44.07;100618.34;146617;582;47010;-67
2024/02/10 12:22:08;;;;;;;;;13.50;11.50;;;;;18.81;44.28;100616.56;146612;569;46010;-67
2024/02/10 12:25:06;;;;;;;;;13.00;13.00;;;;;18.87;43.48;100606.13;146616;621;46021;-68
2024/02/10 12:28:01;;;;;;;;;20.00;15.25;;;;;18.91;43.29;100610.59;146609;594;47016;-66
2024/02/10 12:30:59;;;;;;;;;17.25;17.00;;;;;18.88;44.23;100600.06;146615;570;46020;-67
2024/02/10 12:34:04;;;;;;;;;18.50;13.75;;;;;18.86;43.84;100600.88;146613;588;47014;-67
2024/02/10 12:36:59;;;;;;;;;24.75;21.50;;;;;18.80;44.20;100596.41;146616;584;46020;-68
2024/02/10 12:39:54;;;;;;;;;19.75;17.75;;;;;18.69;45.12;100597.94;146610;631;46017;-69
2024/02/10 12:42:51;;;;;;;;;24.50;20.50;;;;;18.51;47.16;100611.66;146615;564;46020;-68
2024/02/10 12:45:49;;;;;;;;;25.50;20.00;;;;;18.38;48.14;100620.16;146611;564;46016;-68
2024/02/10 12:48:43;;;;;;;;;21.50;19.25;;;;;18.30;48.95;100617.41;146617;602;46021;-67
2024/02/10 12:51:44;;;;;;;;;24.00;21.50;;;;;18.27;48.52;100614.72;146614;613;46016;-69
2024/02/10 12:54:36;;;;;;;;;22.50;19.75;;;;;18.28;49.53;100621.75;146618;565;46021;-68
2024/02/10 12:57:30;;;;;;;;;27.25;23.50;;;;;18.34;48.74;100608.72;146616;581;46012;-68
2024/02/10 13:00:45;;;;;;;;;42.50;34.50;;;;;18.36;50.93;100609.66;146617;570;46010;-68
2024/02/10 13:03:41;;;;;;;;;41.50;33.25;;;;;18.34;52.68;100606.09;146608;652;46017;-68
2024/02/10 13:06:37;;;;;;;;;34.50;29.00;;;;;18.24;53.17;100597.19;146617;596;46020;-65
2024/02/10 13:09:39;;;;;;;;;32.00;30.00;;;;;18.11;54.01;100599.56;146606;600;47913;-68
2024/02/10 13:12:44;;;;;;;;;30.50;28.25;;;;;17.98;54.05;100601.09;146616;582;46024;-68
2024/02/10 13:15:46;;;;;;;;;32.00;28.00;;;;;17.88;54.29;100600.03;146614;663;46016;-67
2024/02/10 13:18:44;;;;;;;;;31.50;26.00;;;;;17.78;54.96;100596.31;146616;628;46020;-68
2024/02/10 13:21:40;;;;;;;;;30.50;26.50;;;;;17.72;54.09;100598.78;146612;620;46012;-67
2024/02/10 13:24:32;;;;;;;;;30.75;27.50;;;;;17.69;54.29;100597.81;146617;570;46011;-67
2024/02/10 13:27:28;;;;;;;;;27.50;26.25;;;;;17.68;53.44;100593.44;146613;594;46016;-68
2024/02/10 13:30:22;;;;;;;;;30.75;25.75;;;;;17.70;52.87;100591.75;146615;590;46020;-67
2024/02/10 13:33:18;;;;;;;;;33.50;28.75;;;;;17.71;52.63;100590.88;146610;611;46016;-67
2024/02/10 13:36:18;;;;;;;;;31.00;27.50;;;;;17.73;52.15;100595.31;146616;577;46010;-67
2024/02/10 14:02:07;;;;;;;;;41.25;33.75;;;;;17.34;51.87;100592.75;146617;607;46010;-68
2024/02/10 14:04:56;;;;;;;;;45.00;36.75;;;;;17.37;51.47;100594.53;146609;657;47012;-67
2024/02/10 14:11:19;;;;;;;;;36.25;32.00;;;;;17.44;50.06;100591.19;146610;629;46016;-68
2024/02/10 14:14:17;;;;;;;;;29.25;24.75;;;;;17.43;46.93;100599.91;146615;594;46010;-67
2024/02/10 14:17:17;;;;;;;;;35.25;28.75;;;;;17.40;47.93;100597.25;146613;580;46031;-68
2024/02/10 14:20:26;;;;;;;;;36.50;31.50;;;;;17.36;47.93;100593.66;146613;668;46010;-68
2024/02/10 14:23:24;;;;;;;;;42.25;31.75;;;;;17.34;47.70;100584.00;146611;608;46017;-67